sensor_id;sensor_type;location;lat;lon;timestamp;P1;durP1;ratioP1;P2;durP2;ratioP2
38465;SDS011;24244;51.950;5.902;2022-11-15T00:00:43;28.33;;;15.32;;
38465;SDS011;24244;51.950;5.902;2022-11-15T00:03:09;29.65;;;15.80;;
38465;SDS011;24244;51.950;5.902;2022-11-15T00:05:40;30.30;;;15.48;;
38465;SDS011;24244;51.950;5.902;2022-11-15T00:08:07;28.80;;;14.90;;
38465;SDS011;24244;51.950;5.902;2022-11-15T00:10:34;30.17;;;15.75;;
38465;SDS011;24244;51.950;5.902;2022-11-15T00:13:03;28.23;;;14.88;;
38465;SDS011;24244;51.950;5.902;2022-11-15T00:15:31;31.42;;;14.98;;
38465;SDS011;24244;51.950;5.902;2022-11-15T00:17:58;25.30;;;13.93;;
38465;SDS011;24244;51.950;5.902;2022-11-15T00:20:24;26.90;;;14.75;;
38465;SDS011;24244;51.950;5.902;2022-11-15T00:22:52;25.58;;;14.23;;
38465;SDS011;24244;51.950;5.902;2022-11-15T00:25:19;25.33;;;14.40;;
38465;SDS011;24244;51.950;5.902;2022-11-15T00:27:46;29.67;;;14.55;;
38465;SDS011;24244;51.950;5.902;2022-11-15T00:30:13;25.08;;;14.88;;
38465;SDS011;24244;51.950;5.902;2022-11-15T00:32:40;27.27;;;14.90;;
38465;SDS011;24244;51.950;5.902;2022-11-15T00:35:07;26.25;;;15.13;;
38465;SDS011;24244;51.950;5.902;2022-11-15T00:37:33;27.05;;;14.65;;
38465;SDS011;24244;51.950;5.902;2022-11-15T00:40:02;27.75;;;15.35;;
38465;SDS011;24244;51.950;5.902;2022-11-15T00:42:29;26.17;;;15.80;;
38465;SDS011;24244;51.950;5.902;2022-11-15T00:44:55;26.80;;;15.23;;
38465;SDS011;24244;51.950;5.902;2022-11-15T00:47:22;25.25;;;15.20;;
38465;SDS011;24244;51.950;5.902;2022-11-15T00:49:48;25.52;;;15.63;;
38465;SDS011;24244;51.950;5.902;2022-11-15T00:52:15;25.48;;;15.05;;
38465;SDS011;24244;51.950;5.902;2022-11-15T00:54:42;25.42;;;15.32;;
38465;SDS011;24244;51.950;5.902;2022-11-15T00:57:10;26.27;;;15.48;;
38465;SDS011;24244;51.950;5.902;2022-11-15T00:59:36;25.88;;;14.90;;
38465;SDS011;24244;51.950;5.902;2022-11-15T01:02:03;25.08;;;15.57;;
38465;SDS011;24244;51.950;5.902;2022-11-15T01:04:30;25.67;;;15.45;;
38465;SDS011;24244;51.950;5.902;2022-11-15T01:06:56;24.05;;;14.93;;
38465;SDS011;24244;51.950;5.902;2022-11-15T01:09:23;24.23;;;14.50;;
38465;SDS011;24244;51.950;5.902;2022-11-15T01:11:50;23.10;;;14.57;;
38465;SDS011;24244;51.950;5.902;2022-11-15T01:14:18;23.38;;;14.43;;
38465;SDS011;24244;51.950;5.902;2022-11-15T01:16:50;25.75;;;14.88;;
38465;SDS011;24244;51.950;5.902;2022-11-15T01:19:17;24.27;;;14.88;;
38465;SDS011;24244;51.950;5.902;2022-11-15T01:21:43;25.45;;;14.70;;
38465;SDS011;24244;51.950;5.902;2022-11-15T01:24:10;25.13;;;15.30;;
38465;SDS011;24244;51.950;5.902;2022-11-15T01:26:38;26.80;;;14.95;;
38465;SDS011;24244;51.950;5.902;2022-11-15T01:29:05;24.48;;;13.55;;
38465;SDS011;24244;51.950;5.902;2022-11-15T01:31:33;25.17;;;14.65;;
38465;SDS011;24244;51.950;5.902;2022-11-15T01:36:27;21.88;;;13.52;;
38465;SDS011;24244;51.950;5.902;2022-11-15T01:38:54;23.70;;;14.23;;
38465;SDS011;24244;51.950;5.902;2022-11-15T01:41:23;23.67;;;13.83;;
38465;SDS011;24244;51.950;5.902;2022-11-15T01:43:52;22.88;;;14.57;;
38465;SDS011;24244;51.950;5.902;2022-11-15T01:46:25;25.60;;;14.18;;
38465;SDS011;24244;51.950;5.902;2022-11-15T01:48:57;24.35;;;14.23;;
38465;SDS011;24244;51.950;5.902;2022-11-15T01:51:27;23.45;;;13.88;;
38465;SDS011;24244;51.950;5.902;2022-11-15T01:53:58;23.58;;;15.23;;
38465;SDS011;24244;51.950;5.902;2022-11-15T01:56:28;22.75;;;14.60;;
38465;SDS011;24244;51.950;5.902;2022-11-15T01:58:59;24.17;;;14.18;;
38465;SDS011;24244;51.950;5.902;2022-11-15T02:01:28;21.92;;;13.50;;
38465;SDS011;24244;51.950;5.902;2022-11-15T02:04:00;20.73;;;12.63;;
38465;SDS011;24244;51.950;5.902;2022-11-15T02:06:33;25.15;;;14.43;;
38465;SDS011;24244;51.950;5.902;2022-11-15T02:09:01;22.33;;;13.27;;
38465;SDS011;24244;51.950;5.902;2022-11-15T02:11:28;22.02;;;13.60;;
38465;SDS011;24244;51.950;5.902;2022-11-15T02:13:55;22.77;;;14.07;;
38465;SDS011;24244;51.950;5.902;2022-11-15T02:16:25;23.05;;;13.48;;
38465;SDS011;24244;51.950;5.902;2022-11-15T02:19:06;21.03;;;13.33;;
38465;SDS011;24244;51.950;5.902;2022-11-15T02:21:40;21.08;;;12.30;;
38465;SDS011;24244;51.950;5.902;2022-11-15T02:24:27;23.15;;;13.45;;
38465;SDS011;24244;51.950;5.902;2022-11-15T02:30:20;20.88;;;12.45;;
38465;SDS011;24244;51.950;5.902;2022-11-15T02:32:49;19.95;;;12.63;;
38465;SDS011;24244;51.950;5.902;2022-11-15T02:35:23;21.00;;;12.15;;
38465;SDS011;24244;51.950;5.902;2022-11-15T02:37:56;18.10;;;11.82;;
38465;SDS011;24244;51.950;5.902;2022-11-15T02:40:27;20.20;;;13.20;;
38465;SDS011;24244;51.950;5.902;2022-11-15T02:43:04;18.92;;;12.55;;
38465;SDS011;24244;51.950;5.902;2022-11-15T02:45:56;18.88;;;13.35;;
38465;SDS011;24244;51.950;5.902;2022-11-15T02:48:29;19.73;;;12.70;;
38465;SDS011;24244;51.950;5.902;2022-11-15T02:50:58;19.23;;;12.35;;
38465;SDS011;24244;51.950;5.902;2022-11-15T02:53:25;18.60;;;11.73;;
38465;SDS011;24244;51.950;5.902;2022-11-15T02:55:53;18.35;;;12.32;;
38465;SDS011;24244;51.950;5.902;2022-11-15T03:01:29;21.58;;;13.40;;
38465;SDS011;24244;51.950;5.902;2022-11-15T03:04:07;19.77;;;12.55;;
38465;SDS011;24244;51.950;5.902;2022-11-15T03:06:44;18.73;;;12.30;;
38465;SDS011;24244;51.950;5.902;2022-11-15T03:09:17;19.05;;;12.43;;
38465;SDS011;24244;51.950;5.902;2022-11-15T03:11:56;21.10;;;12.30;;
38465;SDS011;24244;51.950;5.902;2022-11-15T03:14:29;18.95;;;12.00;;
38465;SDS011;24244;51.950;5.902;2022-11-15T03:17:03;19.48;;;12.38;;
38465;SDS011;24244;51.950;5.902;2022-11-15T03:19:38;18.73;;;12.32;;
38465;SDS011;24244;51.950;5.902;2022-11-15T03:22:10;19.77;;;12.30;;
38465;SDS011;24244;51.950;5.902;2022-11-15T03:24:40;18.65;;;12.20;;
38465;SDS011;24244;51.950;5.902;2022-11-15T03:27:09;17.92;;;11.60;;
38465;SDS011;24244;51.950;5.902;2022-11-15T03:29:39;18.67;;;12.15;;
38465;SDS011;24244;51.950;5.902;2022-11-15T03:32:12;18.85;;;11.85;;
38465;SDS011;24244;51.950;5.902;2022-11-15T03:34:43;19.80;;;12.27;;
38465;SDS011;24244;51.950;5.902;2022-11-15T03:37:14;19.80;;;12.25;;
38465;SDS011;24244;51.950;5.902;2022-11-15T03:39:43;19.90;;;11.88;;
38465;SDS011;24244;51.950;5.902;2022-11-15T03:42:13;17.77;;;12.07;;
38465;SDS011;24244;51.950;5.902;2022-11-15T03:44:47;19.13;;;11.82;;
38465;SDS011;24244;51.950;5.902;2022-11-15T03:47:23;20.42;;;12.20;;
38465;SDS011;24244;51.950;5.902;2022-11-15T03:49:57;19.02;;;12.57;;
38465;SDS011;24244;51.950;5.902;2022-11-15T03:52:30;19.15;;;11.70;;
38465;SDS011;24244;51.950;5.902;2022-11-15T03:55:00;18.70;;;12.50;;
38465;SDS011;24244;51.950;5.902;2022-11-15T03:57:28;18.75;;;11.48;;
38465;SDS011;24244;51.950;5.902;2022-11-15T03:59:55;20.17;;;13.13;;
38465;SDS011;24244;51.950;5.902;2022-11-15T04:02:23;22.33;;;14.00;;
38465;SDS011;24244;51.950;5.902;2022-11-15T04:04:50;21.83;;;13.88;;
38465;SDS011;24244;51.950;5.902;2022-11-15T04:07:17;20.98;;;14.20;;
38465;SDS011;24244;51.950;5.902;2022-11-15T04:09:44;20.98;;;13.93;;
38465;SDS011;24244;51.950;5.902;2022-11-15T04:12:28;22.23;;;14.43;;
38465;SDS011;24244;51.950;5.902;2022-11-15T04:14:59;22.80;;;13.88;;
38465;SDS011;24244;51.950;5.902;2022-11-15T04:17:35;23.50;;;14.63;;
38465;SDS011;24244;51.950;5.902;2022-11-15T04:20:07;24.27;;;14.40;;
38465;SDS011;24244;51.950;5.902;2022-11-15T04:22:54;20.83;;;13.73;;
38465;SDS011;24244;51.950;5.902;2022-11-15T04:25:40;22.50;;;13.77;;
38465;SDS011;24244;51.950;5.902;2022-11-15T04:28:08;22.33;;;13.68;;
38465;SDS011;24244;51.950;5.902;2022-11-15T04:30:35;23.52;;;14.13;;
38465;SDS011;24244;51.950;5.902;2022-11-15T04:33:03;23.08;;;14.20;;
38465;SDS011;24244;51.950;5.902;2022-11-15T04:35:30;21.98;;;14.05;;
38465;SDS011;24244;51.950;5.902;2022-11-15T04:37:57;22.60;;;14.38;;
38465;SDS011;24244;51.950;5.902;2022-11-15T04:40:24;22.10;;;13.93;;
38465;SDS011;24244;51.950;5.902;2022-11-15T04:42:51;20.23;;;13.52;;
38465;SDS011;24244;51.950;5.902;2022-11-15T04:45:17;21.15;;;14.02;;
38465;SDS011;24244;51.950;5.902;2022-11-15T04:47:44;23.30;;;14.23;;
38465;SDS011;24244;51.950;5.902;2022-11-15T04:50:13;23.08;;;14.25;;
38465;SDS011;24244;51.950;5.902;2022-11-15T04:52:40;21.90;;;14.27;;
38465;SDS011;24244;51.950;5.902;2022-11-15T04:55:08;21.92;;;13.63;;
38465;SDS011;24244;51.950;5.902;2022-11-15T04:57:35;23.75;;;14.68;;
38465;SDS011;24244;51.950;5.902;2022-11-15T05:00:03;24.75;;;14.82;;
38465;SDS011;24244;51.950;5.902;2022-11-15T05:02:31;23.42;;;14.63;;
38465;SDS011;24244;51.950;5.902;2022-11-15T05:05:19;20.83;;;13.98;;
38465;SDS011;24244;51.950;5.902;2022-11-15T05:07:46;20.27;;;13.40;;
38465;SDS011;24244;51.950;5.902;2022-11-15T05:10:12;21.10;;;14.00;;
38465;SDS011;24244;51.950;5.902;2022-11-15T05:12:39;19.80;;;13.43;;
38465;SDS011;24244;51.950;5.902;2022-11-15T05:15:06;21.23;;;14.07;;
38465;SDS011;24244;51.950;5.902;2022-11-15T05:17:34;19.20;;;13.43;;
38465;SDS011;24244;51.950;5.902;2022-11-15T05:20:00;21.10;;;13.32;;
38465;SDS011;24244;51.950;5.902;2022-11-15T05:22:29;22.55;;;14.93;;
38465;SDS011;24244;51.950;5.902;2022-11-15T05:24:55;20.27;;;13.17;;
38465;SDS011;24244;51.950;5.902;2022-11-15T05:27:22;20.27;;;13.30;;
38465;SDS011;24244;51.950;5.902;2022-11-15T05:29:48;22.17;;;14.63;;
38465;SDS011;24244;51.950;5.902;2022-11-15T05:32:15;21.98;;;14.05;;
38465;SDS011;24244;51.950;5.902;2022-11-15T05:34:44;21.60;;;13.55;;
38465;SDS011;24244;51.950;5.902;2022-11-15T05:37:11;20.38;;;13.43;;
38465;SDS011;24244;51.950;5.902;2022-11-15T05:39:39;20.85;;;13.55;;
38465;SDS011;24244;51.950;5.902;2022-11-15T05:42:07;20.40;;;13.10;;
38465;SDS011;24244;51.950;5.902;2022-11-15T05:44:36;19.55;;;13.43;;
38465;SDS011;24244;51.950;5.902;2022-11-15T05:47:04;20.33;;;13.15;;
38465;SDS011;24244;51.950;5.902;2022-11-15T05:49:35;21.58;;;13.30;;
38465;SDS011;24244;51.950;5.902;2022-11-15T05:52:06;21.95;;;13.93;;
38465;SDS011;24244;51.950;5.902;2022-11-15T05:54:36;19.52;;;12.65;;
38465;SDS011;24244;51.950;5.902;2022-11-15T05:57:05;20.92;;;13.55;;
38465;SDS011;24244;51.950;5.902;2022-11-15T05:59:32;22.90;;;14.05;;
38465;SDS011;24244;51.950;5.902;2022-11-15T06:01:59;21.50;;;14.80;;
38465;SDS011;24244;51.950;5.902;2022-11-15T06:04:26;21.85;;;14.25;;
38465;SDS011;24244;51.950;5.902;2022-11-15T06:06:53;21.88;;;13.70;;
38465;SDS011;24244;51.950;5.902;2022-11-15T06:09:20;20.58;;;13.63;;
38465;SDS011;24244;51.950;5.902;2022-11-15T06:11:47;22.27;;;14.75;;
38465;SDS011;24244;51.950;5.902;2022-11-15T06:14:15;21.88;;;13.70;;
38465;SDS011;24244;51.950;5.902;2022-11-15T06:16:43;20.83;;;13.47;;
38465;SDS011;24244;51.950;5.902;2022-11-15T06:19:10;21.95;;;13.93;;
38465;SDS011;24244;51.950;5.902;2022-11-15T06:21:36;20.85;;;13.85;;
38465;SDS011;24244;51.950;5.902;2022-11-15T06:24:04;21.25;;;13.57;;
38465;SDS011;24244;51.950;5.902;2022-11-15T06:26:31;22.42;;;14.35;;
38465;SDS011;24244;51.950;5.902;2022-11-15T06:29:01;23.33;;;13.75;;
38465;SDS011;24244;51.950;5.902;2022-11-15T06:31:30;22.65;;;13.57;;
38465;SDS011;24244;51.950;5.902;2022-11-15T06:33:57;20.60;;;13.02;;
38465;SDS011;24244;51.950;5.902;2022-11-15T06:36:23;20.55;;;13.95;;
38465;SDS011;24244;51.950;5.902;2022-11-15T06:38:50;21.27;;;14.10;;
38465;SDS011;24244;51.950;5.902;2022-11-15T06:41:17;18.05;;;12.48;;
38465;SDS011;24244;51.950;5.902;2022-11-15T06:43:44;19.98;;;13.50;;
38465;SDS011;24244;51.950;5.902;2022-11-15T06:46:10;20.02;;;13.55;;
38465;SDS011;24244;51.950;5.902;2022-11-15T06:48:38;18.67;;;12.68;;
38465;SDS011;24244;51.950;5.902;2022-11-15T06:51:05;19.98;;;13.23;;
38465;SDS011;24244;51.950;5.902;2022-11-15T06:53:32;19.85;;;13.02;;
38465;SDS011;24244;51.950;5.902;2022-11-15T06:55:59;21.08;;;13.15;;
38465;SDS011;24244;51.950;5.902;2022-11-15T06:58:27;18.38;;;13.00;;
38465;SDS011;24244;51.950;5.902;2022-11-15T07:00:57;18.10;;;12.18;;
38465;SDS011;24244;51.950;5.902;2022-11-15T07:03:25;19.02;;;12.18;;
38465;SDS011;24244;51.950;5.902;2022-11-15T07:05:54;18.95;;;12.18;;
38465;SDS011;24244;51.950;5.902;2022-11-15T07:08:21;19.70;;;12.65;;
38465;SDS011;24244;51.950;5.902;2022-11-15T07:10:49;19.02;;;12.10;;
38465;SDS011;24244;51.950;5.902;2022-11-15T07:13:16;17.55;;;12.32;;
38465;SDS011;24244;51.950;5.902;2022-11-15T07:15:43;18.02;;;11.98;;
38465;SDS011;24244;51.950;5.902;2022-11-15T07:18:09;17.60;;;12.43;;
38465;SDS011;24244;51.950;5.902;2022-11-15T07:20:36;17.58;;;11.93;;
38465;SDS011;24244;51.950;5.902;2022-11-15T07:23:05;16.42;;;11.63;;
38465;SDS011;24244;51.950;5.902;2022-11-15T07:25:31;19.27;;;11.57;;
38465;SDS011;24244;51.950;5.902;2022-11-15T07:27:58;19.48;;;12.27;;
38465;SDS011;24244;51.950;5.902;2022-11-15T07:30:26;18.13;;;11.65;;
38465;SDS011;24244;51.950;5.902;2022-11-15T07:32:54;19.13;;;12.88;;
38465;SDS011;24244;51.950;5.902;2022-11-15T07:35:20;16.67;;;11.15;;
38465;SDS011;24244;51.950;5.902;2022-11-15T07:37:52;17.38;;;11.57;;
38465;SDS011;24244;51.950;5.902;2022-11-15T07:40:21;17.13;;;11.55;;
38465;SDS011;24244;51.950;5.902;2022-11-15T07:42:48;16.17;;;10.55;;
38465;SDS011;24244;51.950;5.902;2022-11-15T07:45:23;18.17;;;11.90;;
38465;SDS011;24244;51.950;5.902;2022-11-15T07:47:52;17.00;;;10.60;;
38465;SDS011;24244;51.950;5.902;2022-11-15T07:50:19;17.92;;;11.45;;
38465;SDS011;24244;51.950;5.902;2022-11-15T07:52:46;17.45;;;11.27;;
38465;SDS011;24244;51.950;5.902;2022-11-15T07:55:13;18.13;;;11.30;;
38465;SDS011;24244;51.950;5.902;2022-11-15T07:57:41;17.60;;;10.90;;
38465;SDS011;24244;51.950;5.902;2022-11-15T08:00:08;15.85;;;10.45;;
38465;SDS011;24244;51.950;5.902;2022-11-15T08:02:36;19.13;;;11.63;;
38465;SDS011;24244;51.950;5.902;2022-11-15T08:05:03;18.17;;;11.43;;
38465;SDS011;24244;51.950;5.902;2022-11-15T08:07:31;18.90;;;10.73;;
38465;SDS011;24244;51.950;5.902;2022-11-15T08:09:59;17.20;;;11.80;;
38465;SDS011;24244;51.950;5.902;2022-11-15T08:12:27;17.00;;;11.23;;
38465;SDS011;24244;51.950;5.902;2022-11-15T08:14:56;16.75;;;11.15;;
38465;SDS011;24244;51.950;5.902;2022-11-15T08:17:23;17.53;;;11.67;;
38465;SDS011;24244;51.950;5.902;2022-11-15T08:19:50;15.70;;;10.63;;
38465;SDS011;24244;51.950;5.902;2022-11-15T08:22:17;17.05;;;10.75;;
38465;SDS011;24244;51.950;5.902;2022-11-15T08:24:44;15.88;;;11.18;;
38465;SDS011;24244;51.950;5.902;2022-11-15T08:27:11;17.83;;;11.20;;
38465;SDS011;24244;51.950;5.902;2022-11-15T08:29:41;17.58;;;10.05;;
38465;SDS011;24244;51.950;5.902;2022-11-15T08:32:10;17.92;;;11.48;;
38465;SDS011;24244;51.950;5.902;2022-11-15T08:34:37;16.98;;;10.98;;
38465;SDS011;24244;51.950;5.902;2022-11-15T08:37:04;16.52;;;11.02;;
38465;SDS011;24244;51.950;5.902;2022-11-15T08:39:32;16.05;;;10.90;;
38465;SDS011;24244;51.950;5.902;2022-11-15T08:41:58;15.98;;;11.07;;
38465;SDS011;24244;51.950;5.902;2022-11-15T08:44:25;18.23;;;11.15;;
38465;SDS011;24244;51.950;5.902;2022-11-15T08:46:52;16.77;;;11.18;;
38465;SDS011;24244;51.950;5.902;2022-11-15T08:49:20;17.17;;;11.25;;
38465;SDS011;24244;51.950;5.902;2022-11-15T08:51:46;18.53;;;11.53;;
38465;SDS011;24244;51.950;5.902;2022-11-15T08:54:13;19.67;;;12.00;;
38465;SDS011;24244;51.950;5.902;2022-11-15T08:56:40;17.67;;;10.80;;
38465;SDS011;24244;51.950;5.902;2022-11-15T08:59:06;18.33;;;11.85;;
38465;SDS011;24244;51.950;5.902;2022-11-15T09:01:33;17.85;;;11.25;;
38465;SDS011;24244;51.950;5.902;2022-11-15T09:04:00;16.85;;;11.32;;
38465;SDS011;24244;51.950;5.902;2022-11-15T09:06:28;16.13;;;10.35;;
38465;SDS011;24244;51.950;5.902;2022-11-15T09:08:55;17.65;;;10.98;;
38465;SDS011;24244;51.950;5.902;2022-11-15T09:11:22;15.73;;;10.55;;
38465;SDS011;24244;51.950;5.902;2022-11-15T09:13:49;16.65;;;10.27;;
38465;SDS011;24244;51.950;5.902;2022-11-15T09:16:16;16.52;;;9.60;;
38465;SDS011;24244;51.950;5.902;2022-11-15T09:18:43;14.68;;;9.85;;
38465;SDS011;24244;51.950;5.902;2022-11-15T09:21:09;14.57;;;9.70;;
38465;SDS011;24244;51.950;5.902;2022-11-15T09:23:38;16.67;;;9.85;;
38465;SDS011;24244;51.950;5.902;2022-11-15T09:26:04;14.07;;;9.00;;
38465;SDS011;24244;51.950;5.902;2022-11-15T09:28:32;14.43;;;9.13;;
38465;SDS011;24244;51.950;5.902;2022-11-15T09:31:01;14.45;;;8.60;;
38465;SDS011;24244;51.950;5.902;2022-11-15T09:33:30;15.15;;;9.15;;
38465;SDS011;24244;51.950;5.902;2022-11-15T09:36:05;14.40;;;8.95;;
38465;SDS011;24244;51.950;5.902;2022-11-15T09:38:33;14.02;;;8.02;;
38465;SDS011;24244;51.950;5.902;2022-11-15T09:44:09;14.63;;;8.60;;
38465;SDS011;24244;51.950;5.902;2022-11-15T09:46:54;14.35;;;8.48;;
38465;SDS011;24244;51.950;5.902;2022-11-15T09:49:31;14.02;;;8.43;;
38465;SDS011;24244;51.950;5.902;2022-11-15T09:51:59;14.60;;;8.45;;
38465;SDS011;24244;51.950;5.902;2022-11-15T09:54:27;14.02;;;7.80;;
38465;SDS011;24244;51.950;5.902;2022-11-15T09:57:26;14.43;;;8.13;;
38465;SDS011;24244;51.950;5.902;2022-11-15T10:00:06;13.68;;;8.52;;
38465;SDS011;24244;51.950;5.902;2022-11-15T10:03:02;14.00;;;7.88;;
38465;SDS011;24244;51.950;5.902;2022-11-15T10:05:37;13.98;;;8.10;;
38465;SDS011;24244;51.950;5.902;2022-11-15T10:08:09;12.23;;;7.50;;
38465;SDS011;24244;51.950;5.902;2022-11-15T10:10:44;12.13;;;7.88;;
38465;SDS011;24244;51.950;5.902;2022-11-15T10:13:14;13.75;;;7.90;;
38465;SDS011;24244;51.950;5.902;2022-11-15T10:15:47;12.30;;;7.43;;
38465;SDS011;24244;51.950;5.902;2022-11-15T10:18:16;11.75;;;7.53;;
38465;SDS011;24244;51.950;5.902;2022-11-15T10:20:49;11.20;;;7.10;;
38465;SDS011;24244;51.950;5.902;2022-11-15T10:23:21;10.48;;;6.68;;
38465;SDS011;24244;51.950;5.902;2022-11-15T10:25:50;10.70;;;6.32;;
38465;SDS011;24244;51.950;5.902;2022-11-15T10:28:21;10.18;;;5.32;;
38465;SDS011;24244;51.950;5.902;2022-11-15T10:30:51;9.15;;;5.40;;
38465;SDS011;24244;51.950;5.902;2022-11-15T10:33:23;10.85;;;6.03;;
38465;SDS011;24244;51.950;5.902;2022-11-15T10:38:55;10.73;;;4.97;;
38465;SDS011;24244;51.950;5.902;2022-11-15T10:41:31;9.63;;;5.07;;
38465;SDS011;24244;51.950;5.902;2022-11-15T10:44:20;8.43;;;4.80;;
38465;SDS011;24244;51.950;5.902;2022-11-15T10:47:16;8.00;;;4.10;;
38465;SDS011;24244;51.950;5.902;2022-11-15T10:49:56;8.45;;;4.10;;
38465;SDS011;24244;51.950;5.902;2022-11-15T10:52:24;9.10;;;4.53;;
38465;SDS011;24244;51.950;5.902;2022-11-15T10:54:52;8.38;;;4.07;;
38465;SDS011;24244;51.950;5.902;2022-11-15T10:57:24;9.35;;;4.30;;
38465;SDS011;24244;51.950;5.902;2022-11-15T10:59:56;9.60;;;4.13;;
38465;SDS011;24244;51.950;5.902;2022-11-15T11:02:34;8.63;;;3.83;;
38465;SDS011;24244;51.950;5.902;2022-11-15T11:05:02;8.60;;;3.50;;
38465;SDS011;24244;51.950;5.902;2022-11-15T11:07:31;7.45;;;3.03;;
38465;SDS011;24244;51.950;5.902;2022-11-15T11:10:01;7.43;;;3.08;;
38465;SDS011;24244;51.950;5.902;2022-11-15T11:12:50;6.72;;;2.95;;
38465;SDS011;24244;51.950;5.902;2022-11-15T11:15:16;8.00;;;2.90;;
38465;SDS011;24244;51.950;5.902;2022-11-15T11:17:51;6.13;;;2.97;;
38465;SDS011;24244;51.950;5.902;2022-11-15T11:20:30;7.07;;;2.85;;
38465;SDS011;24244;51.950;5.902;2022-11-15T11:23:08;6.70;;;2.45;;
38465;SDS011;24244;51.950;5.902;2022-11-15T11:25:48;6.93;;;2.50;;
38465;SDS011;24244;51.950;5.902;2022-11-15T11:28:26;7.47;;;2.42;;
38465;SDS011;24244;51.950;5.902;2022-11-15T11:31:10;5.78;;;2.30;;
38465;SDS011;24244;51.950;5.902;2022-11-15T11:33:52;6.40;;;2.58;;
38465;SDS011;24244;51.950;5.902;2022-11-15T11:36:34;7.13;;;2.15;;
38465;SDS011;24244;51.950;5.902;2022-11-15T11:42:02;5.40;;;1.90;;
38465;SDS011;24244;51.950;5.902;2022-11-15T11:44:49;7.45;;;2.00;;
38465;SDS011;24244;51.950;5.902;2022-11-15T11:47:29;6.28;;;2.05;;
38465;SDS011;24244;51.950;5.902;2022-11-15T11:50:05;5.85;;;2.05;;
38465;SDS011;24244;51.950;5.902;2022-11-15T11:52:43;6.50;;;1.75;;
38465;SDS011;24244;51.950;5.902;2022-11-15T11:55:26;5.57;;;2.08;;
38465;SDS011;24244;51.950;5.902;2022-11-15T11:58:09;4.78;;;1.90;;
38465;SDS011;24244;51.950;5.902;2022-11-15T12:00:41;4.78;;;1.92;;
38465;SDS011;24244;51.950;5.902;2022-11-15T12:03:40;6.63;;;2.22;;
38465;SDS011;24244;51.950;5.902;2022-11-15T12:06:17;5.85;;;1.92;;
38465;SDS011;24244;51.950;5.902;2022-11-15T12:11:28;6.45;;;1.80;;
38465;SDS011;24244;51.950;5.902;2022-11-15T12:14:09;5.30;;;1.58;;
38465;SDS011;24244;51.950;5.902;2022-11-15T12:16:45;5.78;;;1.98;;
38465;SDS011;24244;51.950;5.902;2022-11-15T12:19:12;6.13;;;2.10;;
38465;SDS011;24244;51.950;5.902;2022-11-15T12:21:41;4.53;;;1.52;;
38465;SDS011;24244;51.950;5.902;2022-11-15T12:24:14;5.10;;;1.70;;
38465;SDS011;24244;51.950;5.902;2022-11-15T12:26:47;5.30;;;1.67;;
38465;SDS011;24244;51.950;5.902;2022-11-15T12:29:19;5.97;;;1.80;;
38465;SDS011;24244;51.950;5.902;2022-11-15T12:31:50;5.03;;;1.65;;
38465;SDS011;24244;51.950;5.902;2022-11-15T12:34:35;5.43;;;1.75;;
38465;SDS011;24244;51.950;5.902;2022-11-15T12:40:27;4.95;;;1.67;;
38465;SDS011;24244;51.950;5.902;2022-11-15T12:43:01;6.78;;;1.60;;
38465;SDS011;24244;51.950;5.902;2022-11-15T12:45:31;3.75;;;1.35;;
38465;SDS011;24244;51.950;5.902;2022-11-15T12:51:12;4.47;;;1.35;;
38465;SDS011;24244;51.950;5.902;2022-11-15T12:53:39;5.45;;;1.35;;
38465;SDS011;24244;51.950;5.902;2022-11-15T12:56:21;3.97;;;1.20;;
38465;SDS011;24244;51.950;5.902;2022-11-15T12:58:49;4.03;;;1.10;;
38465;SDS011;24244;51.950;5.902;2022-11-15T13:04:26;3.53;;;1.30;;
38465;SDS011;24244;51.950;5.902;2022-11-15T13:06:55;2.78;;;1.10;;
38465;SDS011;24244;51.950;5.902;2022-11-15T13:18:25;4.88;;;1.00;;
38465;SDS011;24244;51.950;5.902;2022-11-15T13:21:00;3.38;;;1.10;;
38465;SDS011;24244;51.950;5.902;2022-11-15T13:24:04;3.67;;;1.08;;
38465;SDS011;24244;51.950;5.902;2022-11-15T13:26:39;5.07;;;1.20;;
38465;SDS011;24244;51.950;5.902;2022-11-15T13:29:15;5.53;;;1.10;;
38465;SDS011;24244;51.950;5.902;2022-11-15T13:31:43;5.28;;;1.20;;
38465;SDS011;24244;51.950;5.902;2022-11-15T13:37:29;3.60;;;1.00;;
38465;SDS011;24244;51.950;5.902;2022-11-15T13:40:09;3.90;;;1.15;;
38465;SDS011;24244;51.950;5.902;2022-11-15T13:42:45;2.25;;;1.00;;
38465;SDS011;24244;51.950;5.902;2022-11-15T13:45:14;5.28;;;1.20;;
38465;SDS011;24244;51.950;5.902;2022-11-15T13:47:43;3.08;;;1.02;;
38465;SDS011;24244;51.950;5.902;2022-11-15T13:50:10;3.33;;;1.10;;
38465;SDS011;24244;51.950;5.902;2022-11-15T13:52:38;4.65;;;1.05;;
38465;SDS011;24244;51.950;5.902;2022-11-15T13:55:10;2.78;;;1.00;;
38465;SDS011;24244;51.950;5.902;2022-11-15T13:57:40;5.32;;;1.17;;
38465;SDS011;24244;51.950;5.902;2022-11-15T14:00:25;3.95;;;1.08;;
38465;SDS011;24244;51.950;5.902;2022-11-15T14:02:56;5.68;;;1.38;;
38465;SDS011;24244;51.950;5.902;2022-11-15T14:05:31;4.35;;;1.30;;
38465;SDS011;24244;51.950;5.902;2022-11-15T14:07:59;2.55;;;1.00;;
38465;SDS011;24244;51.950;5.902;2022-11-15T14:10:29;4.35;;;1.10;;
38465;SDS011;24244;51.950;5.902;2022-11-15T14:15:27;3.60;;;0.93;;
38465;SDS011;24244;51.950;5.902;2022-11-15T14:17:56;2.70;;;1.00;;
38465;SDS011;24244;51.950;5.902;2022-11-15T14:20:29;3.20;;;0.95;;
38465;SDS011;24244;51.950;5.902;2022-11-15T14:23:02;5.40;;;1.38;;
38465;SDS011;24244;51.950;5.902;2022-11-15T14:25:31;5.55;;;1.20;;
38465;SDS011;24244;51.950;5.902;2022-11-15T14:31:06;3.05;;;1.10;;
38465;SDS011;24244;51.950;5.902;2022-11-15T14:33:41;5.28;;;1.15;;
38465;SDS011;24244;51.950;5.902;2022-11-15T14:36:11;5.47;;;1.52;;
38465;SDS011;24244;51.950;5.902;2022-11-15T14:38:40;7.45;;;1.80;;
38465;SDS011;24244;51.950;5.902;2022-11-15T14:41:10;5.90;;;1.77;;
38465;SDS011;24244;51.950;5.902;2022-11-15T14:43:49;5.95;;;1.92;;
38465;SDS011;24244;51.950;5.902;2022-11-15T14:46:19;7.13;;;2.03;;
38465;SDS011;24244;51.950;5.902;2022-11-15T14:48:46;6.20;;;1.75;;
38465;SDS011;24244;51.950;5.902;2022-11-15T14:51:13;5.53;;;1.65;;
38465;SDS011;24244;51.950;5.902;2022-11-15T14:56:08;6.35;;;2.00;;
38465;SDS011;24244;51.950;5.902;2022-11-15T14:58:35;7.15;;;1.80;;
38465;SDS011;24244;51.950;5.902;2022-11-15T15:01:02;5.88;;;1.75;;
38465;SDS011;24244;51.950;5.902;2022-11-15T15:03:38;5.57;;;1.80;;
38465;SDS011;24244;51.950;5.902;2022-11-15T15:06:05;7.15;;;1.83;;
38465;SDS011;24244;51.950;5.902;2022-11-15T15:08:31;6.22;;;2.03;;
38465;SDS011;24244;51.950;5.902;2022-11-15T15:10:59;6.90;;;1.63;;
38465;SDS011;24244;51.950;5.902;2022-11-15T15:13:25;4.97;;;1.35;;
38465;SDS011;24244;51.950;5.902;2022-11-15T15:15:54;4.88;;;1.40;;
38465;SDS011;24244;51.950;5.902;2022-11-15T15:18:21;4.38;;;1.30;;
38465;SDS011;24244;51.950;5.902;2022-11-15T15:20:51;4.20;;;1.33;;
38465;SDS011;24244;51.950;5.902;2022-11-15T15:23:21;5.40;;;1.35;;
38465;SDS011;24244;51.950;5.902;2022-11-15T15:25:50;8.57;;;1.40;;
38465;SDS011;24244;51.950;5.902;2022-11-15T15:30:45;4.70;;;1.17;;
38465;SDS011;24244;51.950;5.902;2022-11-15T15:33:12;5.53;;;1.40;;
38465;SDS011;24244;51.950;5.902;2022-11-15T15:35:38;3.95;;;1.27;;
38465;SDS011;24244;51.950;5.902;2022-11-15T15:38:08;4.72;;;1.50;;
38465;SDS011;24244;51.950;5.902;2022-11-15T15:40:37;4.25;;;1.50;;
38465;SDS011;24244;51.950;5.902;2022-11-15T15:43:04;5.15;;;1.55;;